KDAY/DAY METAR and TAF weather

Enter ICAO airport designator
Station Type Date Time Source
KDAY METAR 2020/04/05 18:56 UTC NOAA

KDAY 051856Z 01008KT 10SM OVC008 10/08 A3013 RMK AO2 SLP204 T01000078 $


Station Type Date Time Source
KDAY Decoded METAR 2020/04/05 18:56 UTC NOAA

COX DAYTON INTERNATIONAL, OH, United States (KDAY) 39-54N 084-13W 305M
Apr 05, 2020 - 02:56 PM EDT / 2020.04.05 1856 UTC
Wind: from the N (010 degrees) at 9 MPH (8 KT):0
Visibility: 10 mile(s):0
Sky conditions: overcast
Temperature: 50.0 F (10.0 C)
Dew Point: 46.0 F (7.8 C)
Relative Humidity: 86%
Pressure (altimeter): 30.13 in. Hg (1020 hPa)
ob: KDAY 051856Z 01008KT 10SM OVC008 10/08 A3013 RMK AO2 SLP204 T01000078
cycle: 19

Station Type Date Time Source
KDAY TAF 2020/04/05 18:34 UTC NOAA

TAF KDAY 051731Z 0518/0618 02006KT P6SM OVC009
TEMPO 0518/0519 5SM BR OVC007
FM052000 02006KT P6SM OVC012
FM052300 03007KT P6SM BKN025
FM060100 06005KT P6SM BKN050
FM061600 17005KT P6SM SCT090

Example: see airport list